sensor_id;sensor_type;location;lat;lon;timestamp;temperature;humidity
44823;DHT22;51097;51.984;5.650;2023-07-16T00:01:04;21.80;99.90
44823;DHT22;51097;51.984;5.650;2023-07-16T00:03:30;21.90;99.90
44823;DHT22;51097;51.984;5.650;2023-07-16T00:05:55;21.90;99.90
44823;DHT22;51097;51.984;5.650;2023-07-16T00:08:22;21.80;99.90
44823;DHT22;51097;51.984;5.650;2023-07-16T00:10:47;21.90;99.90
44823;DHT22;51097;51.984;5.650;2023-07-16T00:13:13;21.80;99.90
44823;DHT22;51097;51.984;5.650;2023-07-16T00:15:38;21.80;99.90
44823;DHT22;51097;51.984;5.650;2023-07-16T00:18:04;21.80;99.90
44823;DHT22;51097;51.984;5.650;2023-07-16T00:20:32;21.80;99.90
44823;DHT22;51097;51.984;5.650;2023-07-16T00:22:58;21.90;99.90
44823;DHT22;51097;51.984;5.650;2023-07-16T00:25:23;21.90;99.90
44823;DHT22;51097;51.984;5.650;2023-07-16T00:27:49;21.90;99.90
44823;DHT22;51097;51.984;5.650;2023-07-16T00:30:14;22.00;99.90
44823;DHT22;51097;51.984;5.650;2023-07-16T00:32:40;22.10;99.90
44823;DHT22;51097;51.984;5.650;2023-07-16T00:35:06;22.00;99.90
44823;DHT22;51097;51.984;5.650;2023-07-16T00:37:32;22.00;99.90
44823;DHT22;51097;51.984;5.650;2023-07-16T00:39:58;21.90;99.90
44823;DHT22;51097;51.984;5.650;2023-07-16T00:42:23;22.00;99.90
44823;DHT22;51097;51.984;5.650;2023-07-16T00:44:49;21.80;99.90
44823;DHT22;51097;51.984;5.650;2023-07-16T00:47:15;21.80;99.90
44823;DHT22;51097;51.984;5.650;2023-07-16T00:49:40;21.80;99.90
44823;DHT22;51097;51.984;5.650;2023-07-16T00:52:14;21.60;99.90
44823;DHT22;51097;51.984;5.650;2023-07-16T00:54:42;21.60;99.90
44823;DHT22;51097;51.984;5.650;2023-07-16T00:57:08;21.60;99.90
44823;DHT22;51097;51.984;5.650;2023-07-16T00:59:33;21.50;99.90
44823;DHT22;51097;51.984;5.650;2023-07-16T01:01:59;21.50;99.90
44823;DHT22;51097;51.984;5.650;2023-07-16T01:04:25;21.60;99.90
44823;DHT22;51097;51.984;5.650;2023-07-16T01:06:53;21.60;99.90
44823;DHT22;51097;51.984;5.650;2023-07-16T01:09:20;21.50;99.90
44823;DHT22;51097;51.984;5.650;2023-07-16T01:11:47;21.40;99.90
44823;DHT22;51097;51.984;5.650;2023-07-16T01:14:16;21.40;99.90
44823;DHT22;51097;51.984;5.650;2023-07-16T01:16:41;21.40;99.90
44823;DHT22;51097;51.984;5.650;2023-07-16T01:19:08;21.30;99.90
44823;DHT22;51097;51.984;5.650;2023-07-16T01:21:41;21.30;99.90
44823;DHT22;51097;51.984;5.650;2023-07-16T01:29:29;21.20;99.90
44823;DHT22;51097;51.984;5.650;2023-07-16T01:31:56;21.20;99.90
44823;DHT22;51097;51.984;5.650;2023-07-16T01:34:24;21.10;99.90
44823;DHT22;51097;51.984;5.650;2023-07-16T01:36:52;21.00;99.90
44823;DHT22;51097;51.984;5.650;2023-07-16T01:39:18;21.10;99.90
44823;DHT22;51097;51.984;5.650;2023-07-16T01:41:44;21.20;99.90
44823;DHT22;51097;51.984;5.650;2023-07-16T01:44:09;21.20;99.90
44823;DHT22;51097;51.984;5.650;2023-07-16T01:46:35;21.10;99.90
44823;DHT22;51097;51.984;5.650;2023-07-16T01:49:04;21.00;99.90
44823;DHT22;51097;51.984;5.650;2023-07-16T01:51:29;21.00;99.90
44823;DHT22;51097;51.984;5.650;2023-07-16T01:53:55;20.70;99.90
44823;DHT22;51097;51.984;5.650;2023-07-16T01:56:20;20.80;99.90
44823;DHT22;51097;51.984;5.650;2023-07-16T01:58:46;20.80;99.90
44823;DHT22;51097;51.984;5.650;2023-07-16T02:01:11;20.80;99.90
44823;DHT22;51097;51.984;5.650;2023-07-16T02:03:37;20.80;99.90
44823;DHT22;51097;51.984;5.650;2023-07-16T02:06:02;20.70;99.90
44823;DHT22;51097;51.984;5.650;2023-07-16T02:08:28;20.60;99.90
44823;DHT22;51097;51.984;5.650;2023-07-16T02:10:54;20.70;99.90
44823;DHT22;51097;51.984;5.650;2023-07-16T02:13:19;20.60;99.90
44823;DHT22;51097;51.984;5.650;2023-07-16T02:15:45;20.70;99.90
44823;DHT22;51097;51.984;5.650;2023-07-16T02:18:11;20.50;99.90
44823;DHT22;51097;51.984;5.650;2023-07-16T02:20:36;20.50;99.90
44823;DHT22;51097;51.984;5.650;2023-07-16T02:23:02;20.60;99.90
44823;DHT22;51097;51.984;5.650;2023-07-16T02:25:27;20.50;99.90
44823;DHT22;51097;51.984;5.650;2023-07-16T02:27:53;20.40;99.90
44823;DHT22;51097;51.984;5.650;2023-07-16T02:30:19;20.40;99.90
44823;DHT22;51097;51.984;5.650;2023-07-16T02:32:44;20.40;99.90
44823;DHT22;51097;51.984;5.650;2023-07-16T02:35:10;20.50;99.90
44823;DHT22;51097;51.984;5.650;2023-07-16T02:37:36;20.50;99.90
44823;DHT22;51097;51.984;5.650;2023-07-16T02:40:02;20.50;99.90
44823;DHT22;51097;51.984;5.650;2023-07-16T02:42:28;20.40;99.90
44823;DHT22;51097;51.984;5.650;2023-07-16T02:44:54;20.40;99.90
44823;DHT22;51097;51.984;5.650;2023-07-16T02:47:19;20.40;99.90
44823;DHT22;51097;51.984;5.650;2023-07-16T02:49:45;20.30;99.90
44823;DHT22;51097;51.984;5.650;2023-07-16T02:52:11;20.10;99.90
44823;DHT22;51097;51.984;5.650;2023-07-16T02:54:36;20.00;99.90
44823;DHT22;51097;51.984;5.650;2023-07-16T02:57:02;20.00;99.90
44823;DHT22;51097;51.984;5.650;2023-07-16T02:59:28;20.00;99.90
44823;DHT22;51097;51.984;5.650;2023-07-16T03:01:53;20.00;99.90
44823;DHT22;51097;51.984;5.650;2023-07-16T03:04:19;20.10;99.90
44823;DHT22;51097;51.984;5.650;2023-07-16T03:06:45;20.10;99.90
44823;DHT22;51097;51.984;5.650;2023-07-16T03:09:11;20.10;99.90
44823;DHT22;51097;51.984;5.650;2023-07-16T03:11:36;20.00;99.90
44823;DHT22;51097;51.984;5.650;2023-07-16T03:14:02;20.00;99.90
44823;DHT22;51097;51.984;5.650;2023-07-16T03:16:28;19.80;99.90
44823;DHT22;51097;51.984;5.650;2023-07-16T03:18:53;19.90;99.90
44823;DHT22;51097;51.984;5.650;2023-07-16T03:21:19;20.00;99.90
44823;DHT22;51097;51.984;5.650;2023-07-16T03:23:44;19.90;99.90
44823;DHT22;51097;51.984;5.650;2023-07-16T03:26:10;19.90;99.90
44823;DHT22;51097;51.984;5.650;2023-07-16T03:28:35;19.90;99.90
44823;DHT22;51097;51.984;5.650;2023-07-16T03:31:01;19.80;99.90
44823;DHT22;51097;51.984;5.650;2023-07-16T03:33:27;19.80;99.90
44823;DHT22;51097;51.984;5.650;2023-07-16T03:35:52;19.90;99.90
44823;DHT22;51097;51.984;5.650;2023-07-16T03:38:18;19.90;99.90
44823;DHT22;51097;51.984;5.650;2023-07-16T03:40:47;19.70;99.90
44823;DHT22;51097;51.984;5.650;2023-07-16T03:43:13;19.80;99.90
44823;DHT22;51097;51.984;5.650;2023-07-16T03:45:38;19.60;99.90
44823;DHT22;51097;51.984;5.650;2023-07-16T03:48:04;19.70;99.90
44823;DHT22;51097;51.984;5.650;2023-07-16T03:50:30;19.60;99.90
44823;DHT22;51097;51.984;5.650;2023-07-16T03:52:56;19.70;99.90
44823;DHT22;51097;51.984;5.650;2023-07-16T03:55:21;19.50;99.90
44823;DHT22;51097;51.984;5.650;2023-07-16T03:57:47;19.60;99.90
44823;DHT22;51097;51.984;5.650;2023-07-16T04:00:13;19.50;99.90
44823;DHT22;51097;51.984;5.650;2023-07-16T04:02:38;19.60;99.90
44823;DHT22;51097;51.984;5.650;2023-07-16T04:05:04;19.60;99.90
44823;DHT22;51097;51.984;5.650;2023-07-16T04:07:30;19.50;99.90
44823;DHT22;51097;51.984;5.650;2023-07-16T04:09:55;19.60;99.90
44823;DHT22;51097;51.984;5.650;2023-07-16T04:12:21;19.50;99.90
44823;DHT22;51097;51.984;5.650;2023-07-16T04:14:47;19.60;99.90
44823;DHT22;51097;51.984;5.650;2023-07-16T04:17:13;19.40;99.90
44823;DHT22;51097;51.984;5.650;2023-07-16T04:19:39;19.40;99.90
44823;DHT22;51097;51.984;5.650;2023-07-16T04:22:04;19.50;99.90
44823;DHT22;51097;51.984;5.650;2023-07-16T04:24:30;19.60;99.90
44823;DHT22;51097;51.984;5.650;2023-07-16T04:26:57;19.50;99.90
44823;DHT22;51097;51.984;5.650;2023-07-16T04:29:23;19.50;99.90
44823;DHT22;51097;51.984;5.650;2023-07-16T04:31:48;19.50;99.90
44823;DHT22;51097;51.984;5.650;2023-07-16T04:34:14;19.60;99.90
44823;DHT22;51097;51.984;5.650;2023-07-16T04:36:39;19.50;99.90
44823;DHT22;51097;51.984;5.650;2023-07-16T04:39:05;19.50;99.90
44823;DHT22;51097;51.984;5.650;2023-07-16T04:41:31;19.60;99.90
44823;DHT22;51097;51.984;5.650;2023-07-16T04:43:56;19.70;99.90
44823;DHT22;51097;51.984;5.650;2023-07-16T04:46:22;19.70;99.90
44823;DHT22;51097;51.984;5.650;2023-07-16T04:48:47;19.70;99.90
44823;DHT22;51097;51.984;5.650;2023-07-16T04:51:13;19.60;99.90
44823;DHT22;51097;51.984;5.650;2023-07-16T04:53:39;19.70;99.90
44823;DHT22;51097;51.984;5.650;2023-07-16T04:56:04;19.60;99.90
44823;DHT22;51097;51.984;5.650;2023-07-16T04:58:35;19.70;99.90
44823;DHT22;51097;51.984;5.650;2023-07-16T05:01:01;19.80;99.90
44823;DHT22;51097;51.984;5.650;2023-07-16T05:03:26;20.00;99.90
44823;DHT22;51097;51.984;5.650;2023-07-16T05:05:52;19.90;99.90
44823;DHT22;51097;51.984;5.650;2023-07-16T05:08:17;20.00;99.90
44823;DHT22;51097;51.984;5.650;2023-07-16T05:10:43;20.00;99.90
44823;DHT22;51097;51.984;5.650;2023-07-16T05:13:08;20.00;99.90
44823;DHT22;51097;51.984;5.650;2023-07-16T05:15:34;20.00;99.90
44823;DHT22;51097;51.984;5.650;2023-07-16T05:18:00;20.00;99.90
44823;DHT22;51097;51.984;5.650;2023-07-16T05:20:25;19.80;99.90
44823;DHT22;51097;51.984;5.650;2023-07-16T05:22:51;19.90;99.90
44823;DHT22;51097;51.984;5.650;2023-07-16T05:25:16;19.80;99.90
44823;DHT22;51097;51.984;5.650;2023-07-16T05:27:42;19.90;99.90
44823;DHT22;51097;51.984;5.650;2023-07-16T05:30:08;19.80;99.90
44823;DHT22;51097;51.984;5.650;2023-07-16T05:32:33;19.90;99.90
44823;DHT22;51097;51.984;5.650;2023-07-16T05:34:59;19.90;99.90
44823;DHT22;51097;51.984;5.650;2023-07-16T05:37:26;19.80;99.90
44823;DHT22;51097;51.984;5.650;2023-07-16T05:39:51;19.80;99.90
44823;DHT22;51097;51.984;5.650;2023-07-16T05:42:17;19.90;99.90
44823;DHT22;51097;51.984;5.650;2023-07-16T05:44:42;19.90;99.90
44823;DHT22;51097;51.984;5.650;2023-07-16T05:47:09;19.90;99.90
44823;DHT22;51097;51.984;5.650;2023-07-16T05:49:35;20.00;99.90
44823;DHT22;51097;51.984;5.650;2023-07-16T05:52:01;20.00;99.90
44823;DHT22;51097;51.984;5.650;2023-07-16T05:54:26;20.00;99.90
44823;DHT22;51097;51.984;5.650;2023-07-16T05:56:52;20.10;99.90
44823;DHT22;51097;51.984;5.650;2023-07-16T05:59:18;20.00;99.90
44823;DHT22;51097;51.984;5.650;2023-07-16T06:01:44;20.10;99.90
44823;DHT22;51097;51.984;5.650;2023-07-16T06:04:09;20.10;99.90
44823;DHT22;51097;51.984;5.650;2023-07-16T06:06:35;20.00;99.90
44823;DHT22;51097;51.984;5.650;2023-07-16T06:09:01;20.10;99.90
44823;DHT22;51097;51.984;5.650;2023-07-16T06:11:27;20.10;99.90
44823;DHT22;51097;51.984;5.650;2023-07-16T06:13:55;20.20;99.90
44823;DHT22;51097;51.984;5.650;2023-07-16T06:16:21;20.20;99.90
44823;DHT22;51097;51.984;5.650;2023-07-16T06:18:46;20.40;99.90
44823;DHT22;51097;51.984;5.650;2023-07-16T06:21:12;20.50;99.90
44823;DHT22;51097;51.984;5.650;2023-07-16T06:23:38;20.30;99.90
44823;DHT22;51097;51.984;5.650;2023-07-16T06:26:04;20.30;99.90
44823;DHT22;51097;51.984;5.650;2023-07-16T06:28:29;20.40;99.90
44823;DHT22;51097;51.984;5.650;2023-07-16T06:30:55;20.50;99.90
44823;DHT22;51097;51.984;5.650;2023-07-16T06:33:21;20.50;99.90
44823;DHT22;51097;51.984;5.650;2023-07-16T06:35:47;20.60;99.90
44823;DHT22;51097;51.984;5.650;2023-07-16T06:38:16;20.60;99.90
44823;DHT22;51097;51.984;5.650;2023-07-16T06:40:48;20.60;99.90
44823;DHT22;51097;51.984;5.650;2023-07-16T06:43:15;20.60;99.90
44823;DHT22;51097;51.984;5.650;2023-07-16T06:45:41;20.70;99.90
44823;DHT22;51097;51.984;5.650;2023-07-16T06:48:06;20.70;99.90
44823;DHT22;51097;51.984;5.650;2023-07-16T06:50:32;20.70;99.90
44823;DHT22;51097;51.984;5.650;2023-07-16T06:52:58;20.90;99.90
44823;DHT22;51097;51.984;5.650;2023-07-16T06:55:23;21.10;99.90
44823;DHT22;51097;51.984;5.650;2023-07-16T06:57:49;21.20;99.90
44823;DHT22;51097;51.984;5.650;2023-07-16T07:00:14;21.30;99.90
44823;DHT22;51097;51.984;5.650;2023-07-16T07:02:41;21.30;99.90
44823;DHT22;51097;51.984;5.650;2023-07-16T07:05:07;21.20;99.90
44823;DHT22;51097;51.984;5.650;2023-07-16T07:07:33;21.30;99.90
44823;DHT22;51097;51.984;5.650;2023-07-16T07:09:58;21.40;99.90
44823;DHT22;51097;51.984;5.650;2023-07-16T07:12:24;21.50;99.90
44823;DHT22;51097;51.984;5.650;2023-07-16T07:14:49;21.60;99.90
44823;DHT22;51097;51.984;5.650;2023-07-16T07:17:15;21.60;99.90
44823;DHT22;51097;51.984;5.650;2023-07-16T07:19:42;21.80;99.90
44823;DHT22;51097;51.984;5.650;2023-07-16T07:22:08;21.90;99.90
44823;DHT22;51097;51.984;5.650;2023-07-16T07:24:33;22.00;99.90
44823;DHT22;51097;51.984;5.650;2023-07-16T07:26:59;22.00;99.90
44823;DHT22;51097;51.984;5.650;2023-07-16T07:29:24;22.10;99.90
44823;DHT22;51097;51.984;5.650;2023-07-16T07:31:50;22.30;99.90
44823;DHT22;51097;51.984;5.650;2023-07-16T07:34:16;22.40;99.90
44823;DHT22;51097;51.984;5.650;2023-07-16T07:36:41;22.50;99.90
44823;DHT22;51097;51.984;5.650;2023-07-16T07:39:07;22.70;99.90
44823;DHT22;51097;51.984;5.650;2023-07-16T07:41:33;22.80;99.90
44823;DHT22;51097;51.984;5.650;2023-07-16T07:43:59;22.80;99.90
44823;DHT22;51097;51.984;5.650;2023-07-16T07:46:24;22.90;99.90
44823;DHT22;51097;51.984;5.650;2023-07-16T07:48:50;23.00;99.90
44823;DHT22;51097;51.984;5.650;2023-07-16T07:51:15;23.10;99.90
44823;DHT22;51097;51.984;5.650;2023-07-16T07:53:41;23.00;99.90
44823;DHT22;51097;51.984;5.650;2023-07-16T07:56:07;23.10;99.90
44823;DHT22;51097;51.984;5.650;2023-07-16T07:58:33;23.20;99.90
44823;DHT22;51097;51.984;5.650;2023-07-16T08:01:07;23.20;99.90
44823;DHT22;51097;51.984;5.650;2023-07-16T08:03:34;23.30;99.90
44823;DHT22;51097;51.984;5.650;2023-07-16T08:06:03;23.00;99.90
44823;DHT22;51097;51.984;5.650;2023-07-16T08:08:28;23.20;99.90
44823;DHT22;51097;51.984;5.650;2023-07-16T08:10:55;23.30;99.90
44823;DHT22;51097;51.984;5.650;2023-07-16T08:13:21;23.40;99.90
44823;DHT22;51097;51.984;5.650;2023-07-16T08:15:46;23.50;99.90
44823;DHT22;51097;51.984;5.650;2023-07-16T08:18:13;23.70;99.90
44823;DHT22;51097;51.984;5.650;2023-07-16T08:20:39;24.00;99.90
44823;DHT22;51097;51.984;5.650;2023-07-16T08:23:06;24.10;99.90
44823;DHT22;51097;51.984;5.650;2023-07-16T08:25:32;24.40;99.90
44823;DHT22;51097;51.984;5.650;2023-07-16T08:27:57;24.50;99.90
44823;DHT22;51097;51.984;5.650;2023-07-16T08:30:23;24.90;99.90
44823;DHT22;51097;51.984;5.650;2023-07-16T08:32:48;25.00;99.90
44823;DHT22;51097;51.984;5.650;2023-07-16T08:35:15;24.90;99.20
44823;DHT22;51097;51.984;5.650;2023-07-16T08:37:44;25.00;98.80
44823;DHT22;51097;51.984;5.650;2023-07-16T08:40:11;25.00;99.50
44823;DHT22;51097;51.984;5.650;2023-07-16T08:42:38;25.00;99.00
44823;DHT22;51097;51.984;5.650;2023-07-16T08:45:07;25.10;98.90
44823;DHT22;51097;51.984;5.650;2023-07-16T08:47:35;24.90;98.60
44823;DHT22;51097;51.984;5.650;2023-07-16T08:50:01;24.90;98.60
44823;DHT22;51097;51.984;5.650;2023-07-16T08:52:27;25.00;98.50
44823;DHT22;51097;51.984;5.650;2023-07-16T08:54:54;25.00;98.70
44823;DHT22;51097;51.984;5.650;2023-07-16T08:57:20;25.00;98.30
44823;DHT22;51097;51.984;5.650;2023-07-16T08:59:48;24.90;98.80
44823;DHT22;51097;51.984;5.650;2023-07-16T09:02:15;25.00;98.70
44823;DHT22;51097;51.984;5.650;2023-07-16T09:04:42;25.10;98.20
44823;DHT22;51097;51.984;5.650;2023-07-16T09:07:07;25.10;98.80
44823;DHT22;51097;51.984;5.650;2023-07-16T09:09:33;25.30;98.40
44823;DHT22;51097;51.984;5.650;2023-07-16T09:11:59;25.30;98.10
44823;DHT22;51097;51.984;5.650;2023-07-16T09:14:24;25.20;98.10
44823;DHT22;51097;51.984;5.650;2023-07-16T09:16:51;25.20;97.60
44823;DHT22;51097;51.984;5.650;2023-07-16T09:19:17;25.20;98.00
44823;DHT22;51097;51.984;5.650;2023-07-16T09:21:53;25.20;97.70
44823;DHT22;51097;51.984;5.650;2023-07-16T09:24:19;25.30;98.30
44823;DHT22;51097;51.984;5.650;2023-07-16T09:26:55;25.40;97.80
44823;DHT22;51097;51.984;5.650;2023-07-16T09:29:21;25.40;98.30
44823;DHT22;51097;51.984;5.650;2023-07-16T09:32:00;25.40;98.30
44823;DHT22;51097;51.984;5.650;2023-07-16T09:34:27;25.40;98.10
44823;DHT22;51097;51.984;5.650;2023-07-16T09:36:53;25.50;98.00
44823;DHT22;51097;51.984;5.650;2023-07-16T09:39:19;25.50;97.50
44823;DHT22;51097;51.984;5.650;2023-07-16T09:41:49;25.40;97.50
44823;DHT22;51097;51.984;5.650;2023-07-16T09:44:18;25.40;97.50
44823;DHT22;51097;51.984;5.650;2023-07-16T09:46:45;25.50;97.40
44823;DHT22;51097;51.984;5.650;2023-07-16T09:49:11;25.50;97.60
44823;DHT22;51097;51.984;5.650;2023-07-16T09:51:38;25.70;98.20
44823;DHT22;51097;51.984;5.650;2023-07-16T09:54:05;25.80;97.80
44823;DHT22;51097;51.984;5.650;2023-07-16T09:56:44;26.00;97.60
44823;DHT22;51097;51.984;5.650;2023-07-16T09:59:16;26.00;97.20
44823;DHT22;51097;51.984;5.650;2023-07-16T10:01:42;26.00;97.10
44823;DHT22;51097;51.984;5.650;2023-07-16T10:04:15;26.10;97.30
44823;DHT22;51097;51.984;5.650;2023-07-16T10:07:00;26.00;96.80
44823;DHT22;51097;51.984;5.650;2023-07-16T10:09:38;26.00;97.40
44823;DHT22;51097;51.984;5.650;2023-07-16T10:12:11;26.00;96.90
44823;DHT22;51097;51.984;5.650;2023-07-16T10:14:41;26.00;96.90
44823;DHT22;51097;51.984;5.650;2023-07-16T10:17:07;26.20;96.60
44823;DHT22;51097;51.984;5.650;2023-07-16T10:22:18;26.20;95.90
44823;DHT22;51097;51.984;5.650;2023-07-16T10:24:51;26.10;96.30
44823;DHT22;51097;51.984;5.650;2023-07-16T10:27:30;26.30;96.60
44823;DHT22;51097;51.984;5.650;2023-07-16T10:29:57;26.20;96.50
44823;DHT22;51097;51.984;5.650;2023-07-16T10:32:27;26.20;96.10
44823;DHT22;51097;51.984;5.650;2023-07-16T10:34:54;26.00;96.10
44823;DHT22;51097;51.984;5.650;2023-07-16T10:37:20;26.00;96.20
44823;DHT22;51097;51.984;5.650;2023-07-16T10:39:50;26.10;96.20
44823;DHT22;51097;51.984;5.650;2023-07-16T10:42:16;26.00;96.50
44823;DHT22;51097;51.984;5.650;2023-07-16T10:44:43;26.00;95.70
44823;DHT22;51097;51.984;5.650;2023-07-16T10:47:11;25.90;96.10
44823;DHT22;51097;51.984;5.650;2023-07-16T10:49:44;25.60;96.20
44823;DHT22;51097;51.984;5.650;2023-07-16T10:52:10;25.80;96.30
44823;DHT22;51097;51.984;5.650;2023-07-16T10:54:35;25.60;96.60
44823;DHT22;51097;51.984;5.650;2023-07-16T10:57:02;25.60;96.70
44823;DHT22;51097;51.984;5.650;2023-07-16T10:59:29;25.60;96.80
44823;DHT22;51097;51.984;5.650;2023-07-16T11:01:55;25.60;97.10
44823;DHT22;51097;51.984;5.650;2023-07-16T11:04:20;25.60;96.80
44823;DHT22;51097;51.984;5.650;2023-07-16T11:06:46;25.60;96.50
44823;DHT22;51097;51.984;5.650;2023-07-16T11:09:11;25.40;97.10
44823;DHT22;51097;51.984;5.650;2023-07-16T11:11:37;25.40;96.80
44823;DHT22;51097;51.984;5.650;2023-07-16T11:14:05;25.30;97.50
44823;DHT22;51097;51.984;5.650;2023-07-16T11:16:35;25.50;98.00
44823;DHT22;51097;51.984;5.650;2023-07-16T11:19:05;25.60;97.30
44823;DHT22;51097;51.984;5.650;2023-07-16T11:21:33;25.60;97.40
44823;DHT22;51097;51.984;5.650;2023-07-16T11:24:12;25.60;97.10
44823;DHT22;51097;51.984;5.650;2023-07-16T11:26:40;25.70;96.80
44823;DHT22;51097;51.984;5.650;2023-07-16T11:29:15;25.80;97.40
44823;DHT22;51097;51.984;5.650;2023-07-16T11:31:40;25.60;97.00
44823;DHT22;51097;51.984;5.650;2023-07-16T11:34:15;25.80;97.00
44823;DHT22;51097;51.984;5.650;2023-07-16T11:36:41;25.70;96.80
44823;DHT22;51097;51.984;5.650;2023-07-16T11:39:07;25.70;97.30
44823;DHT22;51097;51.984;5.650;2023-07-16T11:41:32;25.80;97.50
44823;DHT22;51097;51.984;5.650;2023-07-16T11:44:00;26.00;98.00
44823;DHT22;51097;51.984;5.650;2023-07-16T11:46:31;26.10;97.60
44823;DHT22;51097;51.984;5.650;2023-07-16T11:49:00;26.30;98.00
44823;DHT22;51097;51.984;5.650;2023-07-16T11:51:26;26.30;97.00
44823;DHT22;51097;51.984;5.650;2023-07-16T11:53:52;26.30;97.30
44823;DHT22;51097;51.984;5.650;2023-07-16T11:56:18;26.50;96.80
44823;DHT22;51097;51.984;5.650;2023-07-16T11:58:43;26.60;97.10
44823;DHT22;51097;51.984;5.650;2023-07-16T12:01:09;26.80;96.10
44823;DHT22;51097;51.984;5.650;2023-07-16T12:03:35;26.90;96.80
44823;DHT22;51097;51.984;5.650;2023-07-16T12:06:01;27.10;96.30
44823;DHT22;51097;51.984;5.650;2023-07-16T12:08:26;27.40;95.80
44823;DHT22;51097;51.984;5.650;2023-07-16T12:10:52;27.30;95.00
44823;DHT22;51097;51.984;5.650;2023-07-16T12:13:18;27.10;95.30
44823;DHT22;51097;51.984;5.650;2023-07-16T12:15:43;27.10;95.10
44823;DHT22;51097;51.984;5.650;2023-07-16T12:18:09;26.90;95.90
44823;DHT22;51097;51.984;5.650;2023-07-16T12:20:35;26.60;98.60
44823;DHT22;51097;51.984;5.650;2023-07-16T12:23:02;26.30;99.90
44823;DHT22;51097;51.984;5.650;2023-07-16T12:25:28;26.20;99.90
44823;DHT22;51097;51.984;5.650;2023-07-16T12:27:54;26.30;99.90
44823;DHT22;51097;51.984;5.650;2023-07-16T12:30:20;26.40;99.90
44823;DHT22;51097;51.984;5.650;2023-07-16T12:32:45;26.40;99.90
44823;DHT22;51097;51.984;5.650;2023-07-16T12:35:11;26.60;99.90
44823;DHT22;51097;51.984;5.650;2023-07-16T12:37:37;26.60;99.90
44823;DHT22;51097;51.984;5.650;2023-07-16T12:40:03;26.70;99.90
44823;DHT22;51097;51.984;5.650;2023-07-16T12:42:28;26.80;99.90
44823;DHT22;51097;51.984;5.650;2023-07-16T12:44:54;26.90;99.90
44823;DHT22;51097;51.984;5.650;2023-07-16T12:47:20;27.20;99.90
44823;DHT22;51097;51.984;5.650;2023-07-16T12:49:45;27.40;99.90
44823;DHT22;51097;51.984;5.650;2023-07-16T12:52:11;27.50;99.50
44823;DHT22;51097;51.984;5.650;2023-07-16T12:54:36;27.50;98.80
44823;DHT22;51097;51.984;5.650;2023-07-16T12:57:02;27.60;98.90
44823;DHT22;51097;51.984;5.650;2023-07-16T12:59:28;27.70;99.10
44823;DHT22;51097;51.984;5.650;2023-07-16T13:01:53;27.70;98.90
44823;DHT22;51097;51.984;5.650;2023-07-16T13:04:19;27.80;97.60
44823;DHT22;51097;51.984;5.650;2023-07-16T13:06:44;27.70;97.90
44823;DHT22;51097;51.984;5.650;2023-07-16T13:09:14;27.70;96.70
44823;DHT22;51097;51.984;5.650;2023-07-16T13:11:41;27.60;97.90
44823;DHT22;51097;51.984;5.650;2023-07-16T13:14:07;27.50;98.90
44823;DHT22;51097;51.984;5.650;2023-07-16T13:16:33;27.40;99.10
44823;DHT22;51097;51.984;5.650;2023-07-16T13:18:58;27.10;99.50
44823;DHT22;51097;51.984;5.650;2023-07-16T13:21:24;26.90;99.90
44823;DHT22;51097;51.984;5.650;2023-07-16T13:23:49;26.90;99.90
44823;DHT22;51097;51.984;5.650;2023-07-16T13:26:15;27.00;99.50
44823;DHT22;51097;51.984;5.650;2023-07-16T13:28:40;27.00;99.40
44823;DHT22;51097;51.984;5.650;2023-07-16T13:31:06;27.00;98.50
44823;DHT22;51097;51.984;5.650;2023-07-16T13:33:32;27.20;98.30
44823;DHT22;51097;51.984;5.650;2023-07-16T13:35:57;27.20;98.30
44823;DHT22;51097;51.984;5.650;2023-07-16T13:38:26;27.30;98.30
44823;DHT22;51097;51.984;5.650;2023-07-16T13:40:52;27.70;97.10
44823;DHT22;51097;51.984;5.650;2023-07-16T13:43:17;28.00;96.80
44823;DHT22;51097;51.984;5.650;2023-07-16T13:45:43;28.10;95.10
44823;DHT22;51097;51.984;5.650;2023-07-16T13:48:08;28.10;95.80
44823;DHT22;51097;51.984;5.650;2023-07-16T13:50:34;28.30;95.20
44823;DHT22;51097;51.984;5.650;2023-07-16T13:53:00;28.70;95.70
44823;DHT22;51097;51.984;5.650;2023-07-16T13:55:27;29.00;94.90
44823;DHT22;51097;51.984;5.650;2023-07-16T13:57:53;29.20;93.60
44823;DHT22;51097;51.984;5.650;2023-07-16T14:00:21;29.50;94.50
44823;DHT22;51097;51.984;5.650;2023-07-16T14:02:46;29.90;93.40
44823;DHT22;51097;51.984;5.650;2023-07-16T14:05:12;30.10;93.00
44823;DHT22;51097;51.984;5.650;2023-07-16T14:07:38;30.30;91.30
44823;DHT22;51097;51.984;5.650;2023-07-16T14:10:03;30.40;91.90
44823;DHT22;51097;51.984;5.650;2023-07-16T14:12:29;30.80;91.50
44823;DHT22;51097;51.984;5.650;2023-07-16T14:14:55;30.80;89.20
44823;DHT22;51097;51.984;5.650;2023-07-16T14:17:20;30.90;89.80
44823;DHT22;51097;51.984;5.650;2023-07-16T14:19:46;30.70;88.50
44823;DHT22;51097;51.984;5.650;2023-07-16T14:22:12;30.50;88.20
44823;DHT22;51097;51.984;5.650;2023-07-16T14:24:38;30.40;87.00
44823;DHT22;51097;51.984;5.650;2023-07-16T14:27:06;30.00;87.40
44823;DHT22;51097;51.984;5.650;2023-07-16T14:29:32;30.00;87.70
44823;DHT22;51097;51.984;5.650;2023-07-16T14:31:58;29.90;89.00
44823;DHT22;51097;51.984;5.650;2023-07-16T14:34:25;29.80;88.20
44823;DHT22;51097;51.984;5.650;2023-07-16T14:36:52;29.80;87.50
44823;DHT22;51097;51.984;5.650;2023-07-16T14:39:17;29.60;87.20
44823;DHT22;51097;51.984;5.650;2023-07-16T14:41:43;29.40;87.20
44823;DHT22;51097;51.984;5.650;2023-07-16T14:44:09;28.90;86.60
44823;DHT22;51097;51.984;5.650;2023-07-16T14:46:35;28.50;89.00
44823;DHT22;51097;51.984;5.650;2023-07-16T14:49:00;28.20;88.60
44823;DHT22;51097;51.984;5.650;2023-07-16T14:51:27;28.20;89.30
44823;DHT22;51097;51.984;5.650;2023-07-16T14:53:53;28.20;89.80
44823;DHT22;51097;51.984;5.650;2023-07-16T14:56:18;28.20;90.10
44823;DHT22;51097;51.984;5.650;2023-07-16T14:58:44;28.40;90.20
44823;DHT22;51097;51.984;5.650;2023-07-16T15:01:10;28.20;90.50
44823;DHT22;51097;51.984;5.650;2023-07-16T15:03:36;28.30;90.20
44823;DHT22;51097;51.984;5.650;2023-07-16T15:06:03;28.30;90.90
44823;DHT22;51097;51.984;5.650;2023-07-16T15:08:29;28.60;90.20
44823;DHT22;51097;51.984;5.650;2023-07-16T15:10:57;28.70;90.60
44823;DHT22;51097;51.984;5.650;2023-07-16T15:13:22;28.90;89.90
44823;DHT22;51097;51.984;5.650;2023-07-16T15:15:51;29.00;89.40
44823;DHT22;51097;51.984;5.650;2023-07-16T15:18:17;29.10;89.80
44823;DHT22;51097;51.984;5.650;2023-07-16T15:20:43;29.00;88.20
44823;DHT22;51097;51.984;5.650;2023-07-16T15:23:08;28.80;87.30
44823;DHT22;51097;51.984;5.650;2023-07-16T15:25:35;28.40;87.90
44823;DHT22;51097;51.984;5.650;2023-07-16T15:28:00;28.40;89.20
44823;DHT22;51097;51.984;5.650;2023-07-16T15:30:26;28.40;89.00
44823;DHT22;51097;51.984;5.650;2023-07-16T15:32:52;28.40;89.40